Graham, Mississippi
Current Conditions -  °F | °C
As of 5:53 PM on Sunday 23 Nov 2014 (Local Time) from KTUP Reporting Station
Overcast Overcast  
Wind Chill: 63°   Ceiling: 2700
Heat Index: 63°   Visibility: 10mi
Dew Point: 58°   Wind: 16mph
Humidity: 84%   Direction: 200°SSW
Pressure: 29.5"   Gusts: 25mph
Location:  34.5357°N, 88.6348°W
Report Text: KTUP 232353Z 20014G22KT 10SM SCT017 OVC027 17/14 A2950 RMK AO2 RAE44 SLP987 P0000 60043 T01720144 10194 20161 52037 $
Loading
Personal Weather Stations






























Interactive Weather Map New forecast layout! Learn more

10-Day Weather Forecast

Advertisements
Track Severe Weather on mobile